createdAt,value
2017-06-20T00:00:21.053Z,1011.38
2017-06-20T00:02:21.107Z,1011.35
2017-06-20T00:03:21.132Z,1011.33
2017-06-20T00:04:21.159Z,1011.34
2017-06-20T00:05:21.188Z,1011.34
2017-06-20T00:06:21.214Z,1011.36
2017-06-20T00:07:21.241Z,1011.35
2017-06-20T00:08:21.267Z,1011.37
2017-06-20T00:09:21.294Z,1011.38
2017-06-20T00:10:21.321Z,1011.37
2017-06-20T00:11:21.347Z,1011.34
2017-06-20T00:12:21.374Z,1011.36
2017-06-20T00:13:21.401Z,1011.33
2017-06-20T00:14:21.428Z,1011.33
2017-06-20T00:15:21.454Z,1011.33
2017-06-20T00:16:21.481Z,1011.3
2017-06-20T00:18:21.534Z,1011.3
2017-06-20T00:19:21.562Z,1011.3
2017-06-20T00:20:21.589Z,1011.3
2017-06-20T00:21:21.614Z,1011.3
2017-06-20T00:22:21.643Z,1011.29
2017-06-20T00:23:21.669Z,1011.29
2017-06-20T00:24:21.697Z,1011.26
2017-06-20T00:25:21.721Z,1011.27
2017-06-20T00:26:21.748Z,1011.25
2017-06-20T00:27:21.775Z,1011.24
2017-06-20T00:28:21.801Z,1011.24
2017-06-20T00:29:21.828Z,1011.24
2017-06-20T00:30:21.855Z,1011.22
2017-06-20T00:31:21.881Z,1011.22
2017-06-20T00:32:21.907Z,1011.23
2017-06-20T00:34:21.961Z,1011.23
2017-06-20T00:35:21.989Z,1011.25
2017-06-20T00:36:22.013Z,1011.23
2017-06-20T00:37:22.042Z,1011.24
2017-06-20T00:38:22.068Z,1011.25
2017-06-20T00:39:22.094Z,1011.2
2017-06-20T00:40:22.121Z,1011.19
2017-06-20T00:41:22.148Z,1011.2
2017-06-20T00:42:22.175Z,1011.14
2017-06-20T00:43:22.201Z,1011.17
2017-06-20T00:44:22.227Z,1011.17
2017-06-20T00:45:22.255Z,1011.15
2017-06-20T00:46:22.281Z,1011.13
2017-06-20T00:47:22.308Z,1011.09
2017-06-20T00:49:22.362Z,1011.07
2017-06-20T00:50:22.387Z,1011.09
2017-06-20T00:51:22.415Z,1011.08
2017-06-20T00:52:22.441Z,1011.08
2017-06-20T00:53:22.468Z,1011.07
2017-06-20T00:54:22.496Z,1011.07
2017-06-20T00:55:22.521Z,1011.07
2017-06-20T00:56:22.548Z,1011.06
2017-06-20T00:57:22.574Z,1011.06
2017-06-20T00:58:22.600Z,1011.05
2017-06-20T00:59:22.627Z,1011.03
2017-06-20T01:00:22.654Z,1011.04
2017-06-20T01:01:22.680Z,1011.02
2017-06-20T01:02:22.706Z,1011.03
2017-06-20T01:03:22.733Z,1011.04
2017-06-20T01:04:22.760Z,1011.01
2017-06-20T01:05:22.786Z,1011.03
2017-06-20T01:06:22.815Z,1011.04
2017-06-20T01:07:22.839Z,1011.04
2017-06-20T01:08:22.864Z,1011.03
2017-06-20T01:09:22.891Z,1010.97
2017-06-20T01:10:22.918Z,1010.95
2017-06-20T01:11:22.945Z,1011
2017-06-20T01:12:22.970Z,1010.97
2017-06-20T01:13:22.997Z,1010.93
2017-06-20T01:14:23.024Z,1010.97
2017-06-20T01:15:23.051Z,1010.94
2017-06-20T01:16:23.077Z,1010.92
2017-06-20T01:17:23.103Z,1010.93
2017-06-20T01:18:23.130Z,1010.92
2017-06-20T01:19:23.155Z,1010.92
2017-06-20T01:21:23.209Z,1010.89
2017-06-20T01:22:23.235Z,1010.88
2017-06-20T01:23:23.261Z,1010.86
2017-06-20T01:24:23.288Z,1010.88
2017-06-20T01:25:23.314Z,1010.84
2017-06-20T01:26:23.341Z,1010.82
2017-06-20T01:27:23.366Z,1010.84
2017-06-20T01:28:23.393Z,1010.83
2017-06-20T01:29:23.421Z,1010.82
2017-06-20T01:30:23.446Z,1010.86
2017-06-20T01:31:23.471Z,1010.84
2017-06-20T01:32:23.499Z,1010.84
2017-06-20T01:33:23.525Z,1010.83
2017-06-20T01:34:23.550Z,1010.81
2017-06-20T01:35:23.577Z,1010.81
2017-06-20T01:37:23.630Z,1010.8
2017-06-20T01:38:23.655Z,1010.78
2017-06-20T01:39:23.682Z,1010.8
2017-06-20T01:40:23.713Z,1010.78
2017-06-20T01:41:23.736Z,1010.74
2017-06-20T01:42:23.763Z,1010.73
2017-06-20T01:43:23.786Z,1010.73
2017-06-20T01:44:23.813Z,1010.75
2017-06-20T01:45:23.838Z,1010.72
2017-06-20T01:46:23.865Z,1010.72
2017-06-20T01:47:23.891Z,1010.74
2017-06-20T01:48:23.917Z,1010.71
2017-06-20T01:49:23.943Z,1010.71
2017-06-20T01:50:23.969Z,1010.73
2017-06-20T01:51:23.996Z,1010.7
2017-06-20T01:53:24.047Z,1010.69
2017-06-20T01:54:24.073Z,1010.69
2017-06-20T01:55:24.100Z,1010.65
2017-06-20T01:56:24.126Z,1010.68
2017-06-20T01:57:24.152Z,1010.65
2017-06-20T01:58:24.178Z,1010.63
2017-06-20T01:59:24.205Z,1010.6
2017-06-20T02:00:24.229Z,1010.59
2017-06-20T02:01:24.255Z,1010.58
2017-06-20T02:02:24.282Z,1010.52
2017-06-20T02:03:24.308Z,1010.52
2017-06-20T02:04:24.334Z,1010.54
2017-06-20T02:05:24.360Z,1010.5
2017-06-20T02:06:24.386Z,1010.5
2017-06-20T02:07:24.412Z,1010.49
2017-06-20T02:09:24.464Z,1010.44
2017-06-20T02:10:24.490Z,1010.47
2017-06-20T02:11:24.516Z,1010.53
2017-06-20T02:12:24.542Z,1010.56
2017-06-20T02:13:24.568Z,1010.54
2017-06-20T02:14:24.594Z,1010.54
2017-06-20T02:15:24.620Z,1010.51
2017-06-20T02:16:24.647Z,1010.53
2017-06-20T02:17:24.672Z,1010.47
2017-06-20T02:18:24.697Z,1010.46
2017-06-20T02:19:24.724Z,1010.47
2017-06-20T02:20:24.750Z,1010.46
2017-06-20T02:21:24.776Z,1010.5
2017-06-20T02:22:24.803Z,1010.47
2017-06-20T02:24:24.855Z,1010.47
2017-06-20T02:25:24.880Z,1010.48
2017-06-20T02:26:24.907Z,1010.45
2017-06-20T02:27:24.932Z,1010.44
2017-06-20T02:28:24.958Z,1010.45
2017-06-20T02:29:24.983Z,1010.44
2017-06-20T02:30:25.010Z,1010.44
2017-06-20T02:31:25.036Z,1010.43
2017-06-20T02:32:25.062Z,1010.4
2017-06-20T02:33:25.087Z,1010.43
2017-06-20T02:34:25.113Z,1010.43
2017-06-20T02:35:25.140Z,1010.43
2017-06-20T02:36:25.164Z,1010.4
2017-06-20T02:37:25.191Z,1010.43
2017-06-20T02:38:25.221Z,1010.41
2017-06-20T02:39:25.243Z,1010.45
2017-06-20T02:40:25.268Z,1010.42
2017-06-20T02:41:25.294Z,1010.39
2017-06-20T02:42:25.320Z,1010.38
2017-06-20T02:43:25.345Z,1010.41
2017-06-20T02:44:25.371Z,1010.4
2017-06-20T02:45:25.397Z,1010.38
2017-06-20T02:46:25.423Z,1010.39
2017-06-20T02:47:25.448Z,1010.38
2017-06-20T02:48:25.475Z,1010.41
2017-06-20T02:49:25.501Z,1010.41
2017-06-20T02:50:25.527Z,1010.41
2017-06-20T02:51:25.552Z,1010.39
2017-06-20T02:52:25.578Z,1010.41
2017-06-20T02:53:25.604Z,1010.36
2017-06-20T02:54:25.629Z,1010.38
2017-06-20T02:56:25.681Z,1010.35
2017-06-20T02:57:25.707Z,1010.36
2017-06-20T02:58:25.732Z,1010.35
2017-06-20T02:59:25.758Z,1010.38
2017-06-20T03:00:25.784Z,1010.39
2017-06-20T03:01:25.810Z,1010.37
2017-06-20T03:02:25.835Z,1010.35
2017-06-20T03:03:25.861Z,1010.36
2017-06-20T03:04:25.887Z,1010.39
2017-06-20T03:05:25.912Z,1010.37
2017-06-20T03:06:25.938Z,1010.35
2017-06-20T03:07:25.994Z,1010.36
2017-06-20T03:08:25.990Z,1010.36
2017-06-20T03:09:26.015Z,1010.37
2017-06-20T03:10:26.041Z,1010.34
2017-06-20T03:12:26.092Z,1010.34
2017-06-20T03:13:26.118Z,1010.34
2017-06-20T03:14:26.144Z,1010.37
2017-06-20T03:15:26.170Z,1010.37
2017-06-20T03:16:26.195Z,1010.37
2017-06-20T03:17:26.221Z,1010.37
2017-06-20T03:18:26.246Z,1010.38
2017-06-20T03:19:26.272Z,1010.39
2017-06-20T03:20:26.298Z,1010.39
2017-06-20T03:21:26.324Z,1010.37
2017-06-20T03:22:26.350Z,1010.41
2017-06-20T03:23:26.375Z,1010.37
2017-06-20T03:24:26.400Z,1010.39
2017-06-20T03:25:26.426Z,1010.38
2017-06-20T03:26:26.452Z,1010.37
2017-06-20T03:28:26.503Z,1010.36
2017-06-20T03:29:26.529Z,1010.43
2017-06-20T03:30:26.555Z,1010.38
2017-06-20T03:31:26.580Z,1010.41
2017-06-20T03:32:26.607Z,1010.42
2017-06-20T03:33:26.632Z,1010.42
2017-06-20T03:34:26.658Z,1010.4
2017-06-20T03:35:26.683Z,1010.4
2017-06-20T03:36:26.709Z,1010.4
2017-06-20T03:37:26.736Z,1010.4
2017-06-20T03:38:26.760Z,1010.42
2017-06-20T03:39:26.786Z,1010.37
2017-06-20T03:40:26.812Z,1010.45
2017-06-20T03:41:26.838Z,1010.41
2017-06-20T03:42:26.863Z,1010.4
2017-06-20T03:44:26.915Z,1010.42
2017-06-20T03:45:26.941Z,1010.41
2017-06-20T03:46:26.967Z,1010.38
2017-06-20T03:47:26.993Z,1010.41
2017-06-20T03:48:27.018Z,1010.37
2017-06-20T03:49:27.044Z,1010.34
2017-06-20T03:50:27.073Z,1010.37
2017-06-20T03:51:27.096Z,1010.4
2017-06-20T03:52:27.123Z,1010.38
2017-06-20T03:53:27.147Z,1010.38
2017-06-20T03:54:27.173Z,1010.38
2017-06-20T03:55:27.200Z,1010.4
2017-06-20T03:56:27.225Z,1010.42
2017-06-20T03:57:27.252Z,1010.39
2017-06-20T03:59:27.304Z,1010.37
2017-06-20T04:00:27.329Z,1010.36
2017-06-20T04:01:27.356Z,1010.34
2017-06-20T04:02:27.382Z,1010.36
2017-06-20T04:03:27.408Z,1010.36
2017-06-20T04:04:27.433Z,1010.37
2017-06-20T04:05:27.459Z,1010.4
2017-06-20T04:06:27.486Z,1010.39
2017-06-20T04:07:27.514Z,1010.4
2017-06-20T04:08:27.537Z,1010.36
2017-06-20T04:09:27.563Z,1010.46
2017-06-20T04:10:27.590Z,1010.55
2017-06-20T04:11:27.615Z,1010.64
2017-06-20T04:12:27.641Z,1010.7
2017-06-20T04:13:27.668Z,1010.69
2017-06-20T04:14:27.744Z,1010.71
2017-06-20T04:15:27.721Z,1010.71
2017-06-20T04:16:27.747Z,1010.72
2017-06-20T04:17:27.774Z,1010.78
2017-06-20T04:18:27.801Z,1010.8
2017-06-20T04:19:27.830Z,1010.78
2017-06-20T04:20:27.857Z,1010.84
2017-06-20T04:21:27.886Z,1010.87
2017-06-20T04:22:27.913Z,1010.89
2017-06-20T04:23:27.942Z,1010.89
2017-06-20T04:24:27.971Z,1010.89
2017-06-20T04:25:28.000Z,1010.87
2017-06-20T04:26:28.028Z,1010.9
2017-06-20T04:27:28.058Z,1010.9
2017-06-20T04:28:28.088Z,1010.88
2017-06-20T04:29:28.117Z,1010.97
2017-06-20T04:31:28.179Z,1010.97
2017-06-20T04:32:28.209Z,1010.95
2017-06-20T04:33:28.240Z,1010.89
2017-06-20T04:34:28.271Z,1010.95
2017-06-20T04:35:28.302Z,1010.95
2017-06-20T04:36:28.334Z,1010.92
2017-06-20T04:37:28.365Z,1010.93
2017-06-20T04:38:28.397Z,1010.96
2017-06-20T04:39:28.429Z,1010.83
2017-06-20T04:40:28.462Z,1010.89
2017-06-20T04:41:28.495Z,1010.9
2017-06-20T04:42:28.526Z,1010.9
2017-06-20T04:43:28.561Z,1011
2017-06-20T04:44:28.593Z,1010.96
2017-06-20T04:45:28.626Z,1010.97
2017-06-20T04:47:28.693Z,1010.94
2017-06-20T04:48:28.725Z,1010.94
2017-06-20T04:49:28.759Z,1010.9
2017-06-20T04:50:28.792Z,1010.95
2017-06-20T04:51:28.824Z,1010.91
2017-06-20T04:52:28.859Z,1010.84
2017-06-20T04:53:28.893Z,1010.86
2017-06-20T04:54:28.927Z,1010.88
2017-06-20T04:55:28.960Z,1010.86
2017-06-20T04:56:28.993Z,1010.82
2017-06-20T04:57:29.028Z,1010.77
2017-06-20T04:58:29.062Z,1010.75
2017-06-20T04:59:29.094Z,1010.73
2017-06-20T05:00:29.180Z,1010.72
2017-06-20T05:01:29.163Z,1010.71
2017-06-20T05:03:29.233Z,1010.72
2017-06-20T05:04:29.264Z,1010.69
2017-06-20T05:05:29.299Z,1010.73
2017-06-20T05:06:29.332Z,1010.72
2017-06-20T05:07:29.367Z,1010.75
2017-06-20T05:08:29.404Z,1010.77
2017-06-20T05:09:29.436Z,1010.77
2017-06-20T05:10:29.469Z,1010.8
2017-06-20T05:11:29.503Z,1010.75
2017-06-20T05:12:29.538Z,1010.86
2017-06-20T05:13:29.572Z,1010.86
2017-06-20T05:14:29.606Z,1010.9
2017-06-20T05:15:29.641Z,1010.92
2017-06-20T05:16:29.676Z,1010.92
2017-06-20T05:17:29.710Z,1011
2017-06-20T05:19:29.778Z,1011.05
2017-06-20T05:20:29.815Z,1011.12
2017-06-20T05:21:29.849Z,1011.15
2017-06-20T05:22:29.883Z,1011.13
2017-06-20T05:23:29.919Z,1011.1
2017-06-20T05:24:29.953Z,1011.14
2017-06-20T05:25:30.040Z,1011.17
2017-06-20T05:26:30.025Z,1011.22
2017-06-20T05:27:30.061Z,1011.22
2017-06-20T05:28:30.097Z,1011.23
2017-06-20T05:29:30.132Z,1011.2
2017-06-20T05:30:30.168Z,1011.16
2017-06-20T05:31:30.205Z,1011.19
2017-06-20T05:32:30.241Z,1011.16
2017-06-20T05:34:30.314Z,1011.08
2017-06-20T05:35:30.350Z,1011.09
2017-06-20T05:36:30.386Z,1011.06
2017-06-20T05:37:30.422Z,1011.09
2017-06-20T05:38:30.460Z,1011.04
2017-06-20T05:39:30.499Z,1011.05
2017-06-20T05:40:30.533Z,1011.06
2017-06-20T05:41:30.570Z,1011.09
2017-06-20T05:42:30.605Z,1011.01
2017-06-20T05:43:30.642Z,1010.99
2017-06-20T05:44:30.679Z,1011.04
2017-06-20T05:45:30.716Z,1011.01
2017-06-20T05:46:30.752Z,1011.07
2017-06-20T05:47:30.789Z,1011.09
2017-06-20T05:48:30.826Z,1011.02
2017-06-20T05:49:30.862Z,1010.99
2017-06-20T05:50:30.899Z,1011.03
2017-06-20T05:51:30.935Z,1011.06
2017-06-20T05:52:30.973Z,1011.08
2017-06-20T05:53:31.009Z,1011.17
2017-06-20T05:54:31.045Z,1011.21
2017-06-20T05:55:31.082Z,1011.2
2017-06-20T05:56:31.119Z,1011.19
2017-06-20T05:57:31.156Z,1011.15
2017-06-20T05:58:31.193Z,1011.24
2017-06-20T05:59:31.230Z,1011.2
2017-06-20T06:00:31.267Z,1011.26
2017-06-20T06:01:31.304Z,1011.3
2017-06-20T06:02:31.342Z,1011.31
2017-06-20T06:03:31.379Z,1011.24
2017-06-20T06:04:31.416Z,1011.19
2017-06-20T06:06:31.492Z,1011.28
2017-06-20T06:07:31.530Z,1011.18
2017-06-20T06:08:31.567Z,1011.14
2017-06-20T06:09:31.605Z,1011.16
2017-06-20T06:10:31.643Z,1011.13
2017-06-20T06:11:31.682Z,1011.11
2017-06-20T06:12:31.718Z,1011.12
2017-06-20T06:13:31.758Z,1011.08
2017-06-20T06:14:31.797Z,1011.1
2017-06-20T06:15:31.854Z,1011.15
2017-06-20T06:16:31.923Z,1011.18
2017-06-20T06:17:31.912Z,1011.19
2017-06-20T06:18:31.951Z,1011.14
2017-06-20T06:19:31.989Z,1011.18
2017-06-20T06:20:32.028Z,1011.18
2017-06-20T06:22:32.106Z,1011.21
2017-06-20T06:23:32.143Z,1011.24
2017-06-20T06:24:32.182Z,1011.15
2017-06-20T06:25:32.221Z,1011.22
2017-06-20T06:26:32.259Z,1011.17
2017-06-20T06:27:32.301Z,1011.28
2017-06-20T06:28:32.337Z,1011.31
2017-06-20T06:29:32.375Z,1011.36
2017-06-20T06:30:32.413Z,1011.35
2017-06-20T06:31:32.452Z,1011.42
2017-06-20T06:32:32.492Z,1011.52
2017-06-20T06:33:32.530Z,1011.56
2017-06-20T06:34:32.569Z,1011.7
2017-06-20T06:35:32.608Z,1011.71
2017-06-20T06:36:32.647Z,1011.74
2017-06-20T06:38:32.725Z,1011.55
2017-06-20T06:39:32.764Z,1011.75
2017-06-20T06:40:32.806Z,1011.75
2017-06-20T06:41:32.842Z,1011.72
2017-06-20T06:42:32.882Z,1011.66
2017-06-20T06:43:32.922Z,1011.63
2017-06-20T06:44:32.961Z,1011.58
2017-06-20T06:45:33.001Z,1011.56
2017-06-20T06:46:33.040Z,1011.64
2017-06-20T06:47:33.080Z,1011.67
2017-06-20T06:48:33.119Z,1011.74
2017-06-20T06:49:33.159Z,1011.74
2017-06-20T06:50:33.200Z,1011.73
2017-06-20T06:51:33.240Z,1011.68
2017-06-20T06:52:33.279Z,1011.66
2017-06-20T06:54:33.358Z,1011.69
2017-06-20T06:55:33.399Z,1011.61
2017-06-20T06:56:33.438Z,1011.6
2017-06-20T06:57:33.478Z,1011.63
2017-06-20T06:58:33.520Z,1011.57
2017-06-20T06:59:33.557Z,1011.62
2017-06-20T07:00:33.598Z,1011.67
2017-06-20T07:01:33.637Z,1011.66
2017-06-20T07:02:33.677Z,1011.66
2017-06-20T07:03:33.717Z,1011.72
2017-06-20T07:04:33.757Z,1011.76
2017-06-20T07:05:33.798Z,1011.71
2017-06-20T07:06:33.837Z,1011.7
2017-06-20T07:07:33.928Z,1011.65
2017-06-20T07:09:33.959Z,1011.79
2017-06-20T07:10:33.998Z,1011.77
2017-06-20T07:11:34.037Z,1011.73
2017-06-20T07:12:34.077Z,1011.84
2017-06-20T07:13:34.118Z,1011.84
2017-06-20T07:14:34.157Z,1011.86
2017-06-20T07:15:34.196Z,1011.81
2017-06-20T07:16:34.237Z,1011.88
2017-06-20T07:17:34.276Z,1011.8
2017-06-20T07:18:34.316Z,1011.75
2017-06-20T07:19:34.356Z,1011.86
2017-06-20T07:20:34.395Z,1012.12
2017-06-20T07:21:34.435Z,1012.26
2017-06-20T07:22:34.474Z,1012.3
2017-06-20T07:23:34.514Z,1012.39
2017-06-20T07:24:34.554Z,1012.43
2017-06-20T07:25:34.593Z,1012.44
2017-06-20T07:26:34.634Z,1012.4
2017-06-20T07:27:34.673Z,1012.43
2017-06-20T07:28:34.712Z,1012.47
2017-06-20T07:29:34.753Z,1012.55
2017-06-20T07:30:34.793Z,1012.48
2017-06-20T07:31:34.833Z,1012.5
2017-06-20T07:32:34.872Z,1012.45
2017-06-20T07:33:34.911Z,1012.55
2017-06-20T07:34:34.952Z,1012.13
2017-06-20T07:35:34.993Z,1011.54
2017-06-20T07:36:35.032Z,1011.42
2017-06-20T07:37:35.072Z,1011.33
2017-06-20T07:38:35.112Z,1011.41
2017-06-20T07:39:35.151Z,1011.42
2017-06-20T07:41:35.231Z,1011.44
2017-06-20T07:42:35.271Z,1011.43
2017-06-20T07:43:35.309Z,1011.42
2017-06-20T07:44:35.350Z,1011.45
2017-06-20T07:45:35.390Z,1011.42
2017-06-20T07:46:35.430Z,1011.41
2017-06-20T07:47:35.468Z,1011.27
2017-06-20T07:48:35.508Z,1011.31
2017-06-20T07:49:35.549Z,1011.34
2017-06-20T07:50:35.587Z,1011.38
2017-06-20T07:51:35.627Z,1011.39
2017-06-20T07:52:35.667Z,1011.46
2017-06-20T07:53:35.707Z,1011.43
2017-06-20T07:54:35.746Z,1011.43
2017-06-20T07:55:35.785Z,1011.43
2017-06-20T07:57:35.864Z,1011.44
2017-06-20T07:58:35.903Z,1011.45
2017-06-20T07:59:35.943Z,1011.48
2017-06-20T08:00:35.983Z,1011.62
2017-06-20T08:01:36.021Z,1011.73
2017-06-20T08:02:36.061Z,1011.73
2017-06-20T08:03:36.101Z,1011.71
2017-06-20T08:04:36.140Z,1011.62
2017-06-20T08:05:36.179Z,1011.67
2017-06-20T08:06:36.218Z,1011.69
2017-06-20T08:07:36.257Z,1011.61
2017-06-20T08:08:36.297Z,1011.57
2017-06-20T08:09:36.336Z,1011.5
2017-06-20T08:10:36.375Z,1011.45
2017-06-20T08:11:36.415Z,1011.46
2017-06-20T08:13:36.492Z,1011.46
2017-06-20T08:14:36.531Z,1011.46
2017-06-20T08:15:36.571Z,1011.53
2017-06-20T08:16:36.609Z,1011.43
2017-06-20T08:17:36.649Z,1011.5
2017-06-20T08:18:36.688Z,1011.46
2017-06-20T08:19:36.727Z,1011.49
2017-06-20T08:20:36.766Z,1011.5
2017-06-20T08:21:36.805Z,1011.47
2017-06-20T08:22:36.844Z,1011.47
2017-06-20T08:23:36.883Z,1011.44
2017-06-20T08:24:36.922Z,1011.38
2017-06-20T08:25:36.962Z,1011.38
2017-06-20T08:26:37.001Z,1011.32
2017-06-20T08:27:37.039Z,1011.36
2017-06-20T08:29:37.118Z,1011.29
2017-06-20T08:30:37.157Z,1011.28
2017-06-20T08:31:37.196Z,1011.32
2017-06-20T08:32:37.234Z,1011.34
2017-06-20T08:33:37.274Z,1011.23
2017-06-20T08:34:37.314Z,1011.23
2017-06-20T08:35:37.352Z,1011.11
2017-06-20T08:36:37.391Z,1010.99
2017-06-20T08:37:37.429Z,1011.17
2017-06-20T08:38:37.467Z,1011.15
2017-06-20T08:39:37.505Z,1011.15
2017-06-20T08:40:37.544Z,1011.16
2017-06-20T08:41:37.583Z,1011.2
2017-06-20T08:42:37.622Z,1011.21
2017-06-20T08:44:37.699Z,1011.07
2017-06-20T08:45:37.737Z,1010.81
2017-06-20T08:46:37.775Z,1011.18
2017-06-20T08:47:37.813Z,1011.19
2017-06-20T08:48:37.853Z,1011.08
2017-06-20T08:49:37.891Z,1010.8
2017-06-20T08:50:37.927Z,1010.81
2017-06-20T08:51:37.966Z,1010.88
2017-06-20T08:52:38.002Z,1010.89
2017-06-20T08:53:38.040Z,1010.98
2017-06-20T08:54:38.084Z,1011
2017-06-20T08:55:38.116Z,1010.89
2017-06-20T08:56:38.158Z,1010.88
2017-06-20T08:57:38.191Z,1010.98
2017-06-20T08:58:38.229Z,1010.99
2017-06-20T08:59:38.266Z,1010.99
2017-06-20T09:00:38.303Z,1010.92
2017-06-20T09:01:38.340Z,1010.92
2017-06-20T09:02:38.377Z,1010.98
2017-06-20T09:03:38.413Z,1011
2017-06-20T09:04:38.451Z,1011.09
2017-06-20T09:05:38.487Z,1011.03
2017-06-20T09:06:38.525Z,1011.08
2017-06-20T09:07:38.564Z,1011.08
2017-06-20T09:08:38.598Z,1011.03
2017-06-20T09:09:38.635Z,1011.01
2017-06-20T09:10:38.671Z,1011.01
2017-06-20T09:11:38.708Z,1011
2017-06-20T09:12:38.743Z,1011.05
2017-06-20T09:13:38.781Z,1011.03
2017-06-20T09:14:38.817Z,1011.02
2017-06-20T09:16:38.890Z,1010.97
2017-06-20T09:17:38.927Z,1010.97
2017-06-20T09:18:38.962Z,1011
2017-06-20T09:19:39.000Z,1010.97
2017-06-20T09:20:39.036Z,1011.01
2017-06-20T09:21:39.074Z,1010.99
2017-06-20T09:22:39.108Z,1011.02
2017-06-20T09:23:39.145Z,1010.94
2017-06-20T09:24:39.182Z,1010.99
2017-06-20T09:25:39.218Z,1011.03
2017-06-20T09:26:39.264Z,1011
2017-06-20T09:27:39.292Z,1010.96
2017-06-20T09:28:39.327Z,1010.96
2017-06-20T09:29:39.364Z,1010.97
2017-06-20T09:30:39.402Z,1010.97
2017-06-20T09:32:39.474Z,1010.9
2017-06-20T09:33:39.510Z,1010.89
2017-06-20T09:34:39.545Z,1010.91
2017-06-20T09:35:39.582Z,1010.89
2017-06-20T09:36:39.618Z,1010.95
2017-06-20T09:37:39.654Z,1010.93
2017-06-20T09:38:39.690Z,1010.9
2017-06-20T09:39:39.728Z,1010.87
2017-06-20T09:40:39.764Z,1010.88
2017-06-20T09:41:39.800Z,1010.92
2017-06-20T09:42:39.836Z,1010.95
2017-06-20T09:43:39.873Z,1010.97
2017-06-20T09:44:39.909Z,1010.93
2017-06-20T09:45:39.945Z,1010.93
2017-06-20T09:46:39.980Z,1010.89
2017-06-20T09:48:40.051Z,1010.95
2017-06-20T09:49:40.088Z,1010.99
2017-06-20T09:50:40.127Z,1010.98
2017-06-20T09:51:40.160Z,1010.94
2017-06-20T09:52:40.197Z,1010.88
2017-06-20T09:53:40.233Z,1010.86
2017-06-20T09:54:40.268Z,1010.84
2017-06-20T09:55:40.303Z,1010.84
2017-06-20T09:56:40.340Z,1010.87
2017-06-20T09:57:40.376Z,1010.91
2017-06-20T09:58:40.411Z,1010.92
2017-06-20T09:59:40.447Z,1010.94
2017-06-20T10:00:40.583Z,1010.89
2017-06-20T10:01:40.570Z,1010.85
2017-06-20T10:02:40.554Z,1010.88
2017-06-20T10:04:40.628Z,1010.93
2017-06-20T10:05:40.663Z,1010.82
2017-06-20T10:06:40.698Z,1010.87
2017-06-20T10:07:40.734Z,1010.84
2017-06-20T10:08:40.770Z,1010.75
2017-06-20T10:09:40.806Z,1010.78
2017-06-20T10:10:40.843Z,1010.77
2017-06-20T10:11:40.877Z,1010.8
2017-06-20T10:12:40.913Z,1010.76
2017-06-20T10:13:40.948Z,1010.75
2017-06-20T10:14:40.984Z,1010.77
2017-06-20T10:15:41.020Z,1010.79
2017-06-20T10:16:41.056Z,1010.81
2017-06-20T10:17:41.093Z,1010.84
2017-06-20T10:19:41.164Z,1010.91
2017-06-20T10:20:41.198Z,1010.85
2017-06-20T10:21:41.233Z,1010.83
2017-06-20T10:22:41.269Z,1010.88
2017-06-20T10:23:41.305Z,1010.84
2017-06-20T10:24:41.340Z,1010.85
2017-06-20T10:25:41.374Z,1010.84
2017-06-20T10:26:41.412Z,1010.82
2017-06-20T10:27:41.444Z,1010.78
2017-06-20T10:28:41.480Z,1010.87
2017-06-20T10:29:41.516Z,1010.82
2017-06-20T10:30:41.551Z,1010.87
2017-06-20T10:31:41.585Z,1010.9
2017-06-20T10:32:41.620Z,1010.84
2017-06-20T10:33:41.655Z,1010.82
2017-06-20T10:34:41.690Z,1010.85
2017-06-20T10:35:41.725Z,1010.86
2017-06-20T10:36:41.759Z,1010.85
2017-06-20T10:37:41.794Z,1010.84
2017-06-20T10:38:41.835Z,1010.84
2017-06-20T10:39:41.865Z,1010.85
2017-06-20T10:40:41.897Z,1010.86
2017-06-20T10:41:41.933Z,1010.82
2017-06-20T10:42:41.966Z,1010.91
2017-06-20T10:43:42.002Z,1010.89
2017-06-20T10:44:42.037Z,1010.81
2017-06-20T10:45:42.070Z,1010.83
2017-06-20T10:46:42.104Z,1010.86
2017-06-20T10:47:42.139Z,1010.8
2017-06-20T10:48:42.174Z,1010.84
2017-06-20T10:49:42.208Z,1010.9
2017-06-20T10:51:42.277Z,1010.9
2017-06-20T10:52:42.312Z,1010.9
2017-06-20T10:53:42.346Z,1010.85
2017-06-20T10:54:42.380Z,1010.89
2017-06-20T10:55:42.415Z,1010.88
2017-06-20T10:56:42.449Z,1010.87
2017-06-20T10:57:42.482Z,1010.9
2017-06-20T10:58:42.517Z,1010.91
2017-06-20T10:59:42.552Z,1010.86
2017-06-20T11:00:42.585Z,1010.89
2017-06-20T11:01:42.619Z,1010.85
2017-06-20T11:02:42.654Z,1010.85
2017-06-20T11:03:42.688Z,1010.9
2017-06-20T11:04:42.722Z,1010.77
2017-06-20T11:05:42.756Z,1010.82
2017-06-20T11:07:42.825Z,1010.79
2017-06-20T11:08:42.858Z,1010.77
2017-06-20T11:09:42.892Z,1010.79
2017-06-20T11:10:42.927Z,1010.73
2017-06-20T11:11:42.960Z,1010.8
2017-06-20T11:12:42.994Z,1010.76
2017-06-20T11:13:43.029Z,1010.72
2017-06-20T11:14:43.064Z,1010.77
2017-06-20T11:15:43.097Z,1010.77
2017-06-20T11:16:43.135Z,1010.78
2017-06-20T11:17:43.165Z,1010.75
2017-06-20T11:18:43.201Z,1010.78
2017-06-20T11:19:43.233Z,1010.79
2017-06-20T11:20:43.267Z,1010.74
2017-06-20T11:21:43.301Z,1010.76
2017-06-20T11:23:43.369Z,1010.75
2017-06-20T11:24:43.403Z,1010.75
2017-06-20T11:25:43.437Z,1010.71
2017-06-20T11:26:43.472Z,1010.74
2017-06-20T11:27:43.504Z,1010.74
2017-06-20T11:28:43.539Z,1010.76
2017-06-20T11:29:43.573Z,1010.73
2017-06-20T11:30:43.606Z,1010.72
2017-06-20T11:31:43.640Z,1010.71
2017-06-20T11:32:43.674Z,1010.71
2017-06-20T11:33:43.707Z,1010.69
2017-06-20T11:34:43.741Z,1010.64
2017-06-20T11:35:43.774Z,1010.62
2017-06-20T11:36:43.809Z,1010.64
2017-06-20T11:37:43.841Z,1010.65
2017-06-20T11:39:43.945Z,1010.66
2017-06-20T11:40:43.944Z,1010.72
2017-06-20T11:41:43.976Z,1010.64
2017-06-20T11:42:44.013Z,1010.66
2017-06-20T11:43:44.094Z,1010.64
2017-06-20T11:44:44.077Z,1010.58
2017-06-20T11:45:44.111Z,1010.65
2017-06-20T11:46:44.145Z,1010.67
2017-06-20T11:47:44.179Z,1010.66
2017-06-20T11:48:44.211Z,1010.66
2017-06-20T11:49:44.245Z,1010.66
2017-06-20T11:50:44.279Z,1010.69
2017-06-20T11:51:44.312Z,1010.64
2017-06-20T11:52:44.346Z,1010.56
2017-06-20T11:54:44.413Z,1010.61
2017-06-20T11:55:44.446Z,1010.6
2017-06-20T11:56:44.480Z,1010.58
2017-06-20T11:57:44.514Z,1010.63
2017-06-20T11:58:44.547Z,1010.6
2017-06-20T11:59:44.579Z,1010.65
2017-06-20T12:00:44.614Z,1010.66
2017-06-20T12:01:44.647Z,1010.67
2017-06-20T12:02:44.679Z,1010.68
2017-06-20T12:03:44.712Z,1010.7
2017-06-20T12:04:44.746Z,1010.68
2017-06-20T12:05:44.779Z,1010.65
2017-06-20T12:06:44.811Z,1010.64
2017-06-20T12:07:44.846Z,1010.6
2017-06-20T12:08:44.878Z,1010.69
2017-06-20T12:09:44.912Z,1010.75
2017-06-20T12:10:44.946Z,1010.66
2017-06-20T12:11:44.979Z,1010.66
2017-06-20T12:12:45.013Z,1010.7
2017-06-20T12:13:45.046Z,1010.73
2017-06-20T12:14:45.079Z,1010.69
2017-06-20T12:15:45.113Z,1010.72
2017-06-20T12:16:45.145Z,1010.67
2017-06-20T12:17:45.178Z,1010.69
2017-06-20T12:18:45.212Z,1010.78
2017-06-20T12:19:45.245Z,1010.81
2017-06-20T12:20:45.279Z,1010.71
2017-06-20T12:21:45.311Z,1010.71
2017-06-20T12:22:45.344Z,1010.7
2017-06-20T12:23:45.379Z,1010.65
2017-06-20T12:24:45.409Z,1010.69
2017-06-20T12:26:45.477Z,1010.7
2017-06-20T12:27:45.510Z,1010.61
2017-06-20T12:28:45.542Z,1010.61
2017-06-20T12:29:45.575Z,1010.61
2017-06-20T12:30:45.609Z,1010.66
2017-06-20T12:31:45.642Z,1010.68
2017-06-20T12:32:45.675Z,1010.74
2017-06-20T12:33:45.708Z,1010.8
2017-06-20T12:34:45.741Z,1010.8
2017-06-20T12:35:45.773Z,1010.76
2017-06-20T12:36:45.806Z,1010.75
2017-06-20T12:37:45.840Z,1010.7
2017-06-20T12:38:45.873Z,1010.67
2017-06-20T12:39:45.905Z,1010.75
2017-06-20T12:40:45.938Z,1010.66
2017-06-20T12:42:46.005Z,1010.72
2017-06-20T12:43:46.037Z,1010.72
2017-06-20T12:44:46.071Z,1010.71
2017-06-20T12:45:46.104Z,1010.62
2017-06-20T12:46:46.135Z,1010.67
2017-06-20T12:47:46.169Z,1010.74
2017-06-20T12:48:46.201Z,1010.73
2017-06-20T12:49:46.234Z,1010.75